sensor_id;sensor_type;location;lat;lon;timestamp;pressure;altitude;pressure_sealevel;temperature;humidity
64228;BME280;50546;49.146;10.616;2022-07-10T00:00:17;96917.06;;;17.83;66.02
64228;BME280;50546;49.146;10.616;2022-07-10T00:02:45;96912.09;;;17.73;66.61
64228;BME280;50546;49.146;10.616;2022-07-10T00:05:11;96905.81;;;17.85;66.53
64228;BME280;50546;49.146;10.616;2022-07-10T00:07:37;96907.44;;;17.73;66.75
64228;BME280;50546;49.146;10.616;2022-07-10T00:10:03;96907.06;;;17.75;66.77
64228;BME280;50546;49.146;10.616;2022-07-10T00:12:29;96903.69;;;17.78;66.85
64228;BME280;50546;49.146;10.616;2022-07-10T00:14:54;96896.34;;;17.66;67.25
64228;BME280;50546;49.146;10.616;2022-07-10T00:17:20;96901.47;;;17.55;67.78
64228;BME280;50546;49.146;10.616;2022-07-10T00:19:45;96901.00;;;17.66;67.36
64228;BME280;50546;49.146;10.616;2022-07-10T00:22:10;96897.47;;;17.65;67.39
64228;BME280;50546;49.146;10.616;2022-07-10T00:24:36;96897.56;;;17.69;67.22
64228;BME280;50546;49.146;10.616;2022-07-10T00:27:01;96892.56;;;17.71;67.14
64228;BME280;50546;49.146;10.616;2022-07-10T00:29:26;96897.13;;;17.67;66.94
64228;BME280;50546;49.146;10.616;2022-07-10T00:31:52;96894.66;;;17.62;67.50
64228;BME280;50546;49.146;10.616;2022-07-10T00:34:17;96893.41;;;17.59;67.64
64228;BME280;50546;49.146;10.616;2022-07-10T00:36:42;96890.69;;;17.59;67.35
64228;BME280;50546;49.146;10.616;2022-07-10T00:39:09;96893.56;;;17.50;67.73
64228;BME280;50546;49.146;10.616;2022-07-10T00:41:34;96895.47;;;17.50;68.11
64228;BME280;50546;49.146;10.616;2022-07-10T00:44:01;96893.47;;;17.47;68.13
64228;BME280;50546;49.146;10.616;2022-07-10T00:46:27;96893.59;;;17.38;68.06
64228;BME280;50546;49.146;10.616;2022-07-10T00:48:53;96889.56;;;17.20;68.71
64228;BME280;50546;49.146;10.616;2022-07-10T00:51:20;96893.31;;;17.15;69.30
64228;BME280;50546;49.146;10.616;2022-07-10T00:53:48;96894.22;;;17.19;69.01
64228;BME280;50546;49.146;10.616;2022-07-10T00:56:18;96894.69;;;17.09;69.39
64228;BME280;50546;49.146;10.616;2022-07-10T00:58:46;96890.38;;;17.08;69.30
64228;BME280;50546;49.146;10.616;2022-07-10T01:01:11;96895.25;;;17.02;69.88
64228;BME280;50546;49.146;10.616;2022-07-10T01:03:37;96888.44;;;17.08;69.24
64228;BME280;50546;49.146;10.616;2022-07-10T01:06:03;96883.00;;;17.08;69.65
64228;BME280;50546;49.146;10.616;2022-07-10T01:08:28;96879.38;;;17.04;69.62
64228;BME280;50546;49.146;10.616;2022-07-10T01:10:54;96880.53;;;17.03;69.53
64228;BME280;50546;49.146;10.616;2022-07-10T01:13:19;96883.72;;;16.93;69.88
64228;BME280;50546;49.146;10.616;2022-07-10T01:15:45;96888.59;;;16.88;70.12
64228;BME280;50546;49.146;10.616;2022-07-10T01:18:12;96884.19;;;16.83;69.72
64228;BME280;50546;49.146;10.616;2022-07-10T01:20:38;96888.25;;;16.77;70.19
64228;BME280;50546;49.146;10.616;2022-07-10T01:23:03;96884.44;;;16.78;70.55
64228;BME280;50546;49.146;10.616;2022-07-10T01:25:28;96885.31;;;16.82;70.06
64228;BME280;50546;49.146;10.616;2022-07-10T01:27:53;96883.97;;;16.76;70.27
64228;BME280;50546;49.146;10.616;2022-07-10T01:30:19;96886.00;;;16.67;70.10
64228;BME280;50546;49.146;10.616;2022-07-10T01:32:46;96885.53;;;16.65;70.73
64228;BME280;50546;49.146;10.616;2022-07-10T01:35:11;96881.00;;;16.56;70.65
64228;BME280;50546;49.146;10.616;2022-07-10T01:37:38;96888.47;;;16.59;70.50
64228;BME280;50546;49.146;10.616;2022-07-10T01:40:04;96883.47;;;16.61;70.90
64228;BME280;50546;49.146;10.616;2022-07-10T01:42:29;96888.38;;;16.56;71.13
64228;BME280;50546;49.146;10.616;2022-07-10T01:44:55;96887.31;;;16.48;71.19
64228;BME280;50546;49.146;10.616;2022-07-10T01:47:20;96881.44;;;16.58;71.13
64228;BME280;50546;49.146;10.616;2022-07-10T01:49:50;96887.31;;;16.48;70.92
64228;BME280;50546;49.146;10.616;2022-07-10T01:52:15;96876.22;;;16.41;71.38
64228;BME280;50546;49.146;10.616;2022-07-10T01:54:41;96884.25;;;16.37;71.80
64228;BME280;50546;49.146;10.616;2022-07-10T01:57:06;96874.31;;;16.42;71.63
64228;BME280;50546;49.146;10.616;2022-07-10T01:59:31;96885.75;;;16.35;71.37
64228;BME280;50546;49.146;10.616;2022-07-10T02:01:56;96886.41;;;16.32;72.00
64228;BME280;50546;49.146;10.616;2022-07-10T02:04:22;96890.06;;;16.36;71.40
64228;BME280;50546;49.146;10.616;2022-07-10T02:07:05;96888.13;;;16.36;71.77
64228;BME280;50546;49.146;10.616;2022-07-10T02:09:31;96896.94;;;16.33;72.12
64228;BME280;50546;49.146;10.616;2022-07-10T02:11:56;96893.13;;;16.34;71.88
64228;BME280;50546;49.146;10.616;2022-07-10T02:14:21;96890.16;;;16.27;71.83
64228;BME280;50546;49.146;10.616;2022-07-10T02:16:47;96894.13;;;16.30;72.04
64228;BME280;50546;49.146;10.616;2022-07-10T02:19:12;96898.63;;;16.26;71.65
64228;BME280;50546;49.146;10.616;2022-07-10T02:21:37;96897.72;;;16.22;71.75
64228;BME280;50546;49.146;10.616;2022-07-10T02:24:03;96892.66;;;16.20;72.12
64228;BME280;50546;49.146;10.616;2022-07-10T02:26:28;96896.13;;;16.08;72.68
64228;BME280;50546;49.146;10.616;2022-07-10T02:28:53;96889.31;;;16.02;73.14
64228;BME280;50546;49.146;10.616;2022-07-10T02:31:18;96890.00;;;15.99;72.95
64228;BME280;50546;49.146;10.616;2022-07-10T02:33:44;96891.69;;;15.92;73.32
64228;BME280;50546;49.146;10.616;2022-07-10T02:36:09;96896.09;;;15.96;72.58
64228;BME280;50546;49.146;10.616;2022-07-10T02:38:34;96892.34;;;15.88;73.16
64228;BME280;50546;49.146;10.616;2022-07-10T02:40:59;96899.03;;;15.91;72.90
64228;BME280;50546;49.146;10.616;2022-07-10T02:43:25;96894.41;;;15.92;72.48
64228;BME280;50546;49.146;10.616;2022-07-10T02:45:51;96896.75;;;15.93;72.35
64228;BME280;50546;49.146;10.616;2022-07-10T02:48:16;96896.56;;;15.98;72.59
64228;BME280;50546;49.146;10.616;2022-07-10T02:50:43;96896.34;;;16.03;72.59
64228;BME280;50546;49.146;10.616;2022-07-10T02:53:08;96890.50;;;15.80;73.04
64228;BME280;50546;49.146;10.616;2022-07-10T02:55:33;96898.78;;;15.84;73.18
64228;BME280;50546;49.146;10.616;2022-07-10T02:57:59;96900.97;;;15.91;72.54
64228;BME280;50546;49.146;10.616;2022-07-10T03:00:25;96903.09;;;15.85;72.94
64228;BME280;50546;49.146;10.616;2022-07-10T03:02:51;96903.47;;;15.96;72.12
64228;BME280;50546;49.146;10.616;2022-07-10T03:05:17;96893.81;;;15.86;73.27
64228;BME280;50546;49.146;10.616;2022-07-10T03:07:42;96900.09;;;15.66;73.81
64228;BME280;50546;49.146;10.616;2022-07-10T03:10:08;96898.59;;;15.68;73.90
64228;BME280;50546;49.146;10.616;2022-07-10T03:12:34;96902.59;;;15.71;73.78
64228;BME280;50546;49.146;10.616;2022-07-10T03:14:59;96908.13;;;15.53;74.50
64228;BME280;50546;49.146;10.616;2022-07-10T03:17:24;96908.63;;;15.76;73.44
64228;BME280;50546;49.146;10.616;2022-07-10T03:19:50;96907.84;;;15.88;73.28
64228;BME280;50546;49.146;10.616;2022-07-10T03:22:15;96910.22;;;15.89;73.77
64228;BME280;50546;49.146;10.616;2022-07-10T03:24:40;96905.59;;;15.90;73.09
64228;BME280;50546;49.146;10.616;2022-07-10T03:27:08;96907.97;;;15.92;73.62
64228;BME280;50546;49.146;10.616;2022-07-10T03:29:33;96915.78;;;15.93;73.00
64228;BME280;50546;49.146;10.616;2022-07-10T03:31:58;96915.25;;;16.00;72.87
64228;BME280;50546;49.146;10.616;2022-07-10T03:34:23;96903.59;;;15.99;73.31
64228;BME280;50546;49.146;10.616;2022-07-10T03:36:49;96910.84;;;16.07;72.71
64228;BME280;50546;49.146;10.616;2022-07-10T03:39:14;96908.78;;;16.04;72.25
64228;BME280;50546;49.146;10.616;2022-07-10T03:41:39;96908.34;;;16.02;72.44
64228;BME280;50546;49.146;10.616;2022-07-10T03:44:05;96903.81;;;16.06;72.33
64228;BME280;50546;49.146;10.616;2022-07-10T03:46:30;96904.97;;;16.05;72.07
64228;BME280;50546;49.146;10.616;2022-07-10T03:48:56;96909.50;;;16.13;71.60
64228;BME280;50546;49.146;10.616;2022-07-10T03:51:21;96905.09;;;16.09;72.09
64228;BME280;50546;49.146;10.616;2022-07-10T03:53:46;96915.38;;;16.03;71.89
64228;BME280;50546;49.146;10.616;2022-07-10T03:56:11;96910.19;;;16.10;71.23
64228;BME280;50546;49.146;10.616;2022-07-10T03:58:57;96912.63;;;15.91;72.17
64228;BME280;50546;49.146;10.616;2022-07-10T04:01:22;96911.63;;;15.96;72.27
64228;BME280;50546;49.146;10.616;2022-07-10T04:03:47;96914.88;;;15.89;72.47
64228;BME280;50546;49.146;10.616;2022-07-10T04:06:12;96916.56;;;15.81;71.99
64228;BME280;50546;49.146;10.616;2022-07-10T04:08:38;96917.81;;;15.84;72.34
64228;BME280;50546;49.146;10.616;2022-07-10T04:11:03;96913.97;;;15.85;72.56
64228;BME280;50546;49.146;10.616;2022-07-10T04:13:28;96913.97;;;15.85;72.64
64228;BME280;50546;49.146;10.616;2022-07-10T04:15:54;96911.84;;;15.91;72.35
64228;BME280;50546;49.146;10.616;2022-07-10T04:18:19;96918.72;;;15.88;72.29
64228;BME280;50546;49.146;10.616;2022-07-10T04:20:44;96918.25;;;15.86;72.07
64228;BME280;50546;49.146;10.616;2022-07-10T04:23:09;96904.66;;;15.86;71.79
64228;BME280;50546;49.146;10.616;2022-07-10T04:25:35;96902.19;;;15.81;71.84
64228;BME280;50546;49.146;10.616;2022-07-10T04:28:00;96907.47;;;15.77;71.66
64228;BME280;50546;49.146;10.616;2022-07-10T04:30:25;96908.50;;;15.73;72.31
64228;BME280;50546;49.146;10.616;2022-07-10T04:32:50;96919.13;;;15.78;72.63
64228;BME280;50546;49.146;10.616;2022-07-10T04:35:16;96914.84;;;15.77;71.93
64228;BME280;50546;49.146;10.616;2022-07-10T04:37:41;96910.44;;;15.84;71.71
64228;BME280;50546;49.146;10.616;2022-07-10T04:40:07;96920.53;;;15.84;71.66
64228;BME280;50546;49.146;10.616;2022-07-10T04:42:32;96917.34;;;15.82;72.24
64228;BME280;50546;49.146;10.616;2022-07-10T04:44:58;96915.41;;;15.82;71.71
64228;BME280;50546;49.146;10.616;2022-07-10T04:47:23;96920.31;;;15.89;71.74
64228;BME280;50546;49.146;10.616;2022-07-10T04:49:48;96912.88;;;15.98;71.80
64228;BME280;50546;49.146;10.616;2022-07-10T04:52:13;96903.03;;;16.06;70.72
64228;BME280;50546;49.146;10.616;2022-07-10T04:54:39;96896.94;;;16.09;70.83
64228;BME280;50546;49.146;10.616;2022-07-10T04:57:04;96901.91;;;16.07;70.60
64228;BME280;50546;49.146;10.616;2022-07-10T04:59:29;96904.25;;;15.96;71.48
64228;BME280;50546;49.146;10.616;2022-07-10T05:01:55;96909.19;;;15.82;71.70
64228;BME280;50546;49.146;10.616;2022-07-10T05:04:20;96910.06;;;15.74;72.07
64228;BME280;50546;49.146;10.616;2022-07-10T05:06:45;96910.78;;;15.62;72.59
64228;BME280;50546;49.146;10.616;2022-07-10T05:09:11;96908.13;;;15.53;72.74
64228;BME280;50546;49.146;10.616;2022-07-10T05:11:36;96921.53;;;15.37;72.82
64228;BME280;50546;49.146;10.616;2022-07-10T05:14:01;96919.16;;;15.36;72.47
64228;BME280;50546;49.146;10.616;2022-07-10T05:16:26;96921.53;;;15.37;72.58
64228;BME280;50546;49.146;10.616;2022-07-10T05:18:52;96923.06;;;15.47;72.40
64228;BME280;50546;49.146;10.616;2022-07-10T05:21:17;96920.88;;;15.40;70.57
64228;BME280;50546;49.146;10.616;2022-07-10T05:23:42;96926.97;;;15.37;69.57
64228;BME280;50546;49.146;10.616;2022-07-10T05:26:08;96927.31;;;15.36;69.79
64228;BME280;50546;49.146;10.616;2022-07-10T05:28:33;96931.88;;;15.23;69.78
64228;BME280;50546;49.146;10.616;2022-07-10T05:30:58;96930.28;;;15.22;67.67
64228;BME280;50546;49.146;10.616;2022-07-10T05:33:24;96943.88;;;14.92;67.78
64228;BME280;50546;49.146;10.616;2022-07-10T05:35:49;96944.69;;;14.93;68.29
64228;BME280;50546;49.146;10.616;2022-07-10T05:38:14;96944.84;;;14.88;69.01
64228;BME280;50546;49.146;10.616;2022-07-10T05:40:40;96947.09;;;14.86;68.06
64228;BME280;50546;49.146;10.616;2022-07-10T05:43:05;96947.09;;;14.86;67.88
64228;BME280;50546;49.146;10.616;2022-07-10T05:45:31;96945.50;;;14.85;67.92
64228;BME280;50546;49.146;10.616;2022-07-10T05:47:56;96949.38;;;15.05;67.37
64228;BME280;50546;49.146;10.616;2022-07-10T05:50:21;96954.38;;;15.24;66.87
64228;BME280;50546;49.146;10.616;2022-07-10T05:52:47;96955.28;;;15.28;67.04
64228;BME280;50546;49.146;10.616;2022-07-10T05:55:12;96950.06;;;15.23;67.60
64228;BME280;50546;49.146;10.616;2022-07-10T05:57:38;96955.53;;;14.93;68.25
64228;BME280;50546;49.146;10.616;2022-07-10T06:00:07;96957.06;;;15.03;67.85
64228;BME280;50546;49.146;10.616;2022-07-10T06:02:33;96962.75;;;14.80;67.48
64228;BME280;50546;49.146;10.616;2022-07-10T06:04:58;96967.97;;;14.94;66.94
64228;BME280;50546;49.146;10.616;2022-07-10T06:07:24;96968.59;;;15.00;66.89
64228;BME280;50546;49.146;10.616;2022-07-10T06:09:49;96958.38;;;14.97;65.69
64228;BME280;50546;49.146;10.616;2022-07-10T06:12:15;96970.91;;;15.10;64.05
64228;BME280;50546;49.146;10.616;2022-07-10T06:14:41;96973.16;;;15.08;63.36
64228;BME280;50546;49.146;10.616;2022-07-10T06:17:07;96978.44;;;15.04;61.15
64228;BME280;50546;49.146;10.616;2022-07-10T06:19:32;96984.66;;;15.05;58.36
64228;BME280;50546;49.146;10.616;2022-07-10T06:21:58;96978.38;;;15.13;58.33
64228;BME280;50546;49.146;10.616;2022-07-10T06:24:42;96980.59;;;14.90;56.73
64228;BME280;50546;49.146;10.616;2022-07-10T06:27:07;96981.38;;;14.90;56.69
64228;BME280;50546;49.146;10.616;2022-07-10T06:29:32;96975.34;;;14.85;56.00
64228;BME280;50546;49.146;10.616;2022-07-10T06:31:57;96981.25;;;14.87;57.21
64228;BME280;50546;49.146;10.616;2022-07-10T06:34:23;96979.69;;;15.07;55.95
64228;BME280;50546;49.146;10.616;2022-07-10T06:36:48;96974.97;;;14.95;54.89
64228;BME280;50546;49.146;10.616;2022-07-10T06:39:14;96982.81;;;14.97;55.22
64228;BME280;50546;49.146;10.616;2022-07-10T06:41:39;96987.19;;;15.10;55.02
64228;BME280;50546;49.146;10.616;2022-07-10T06:44:05;96982.16;;;15.21;54.12
64228;BME280;50546;49.146;10.616;2022-07-10T06:46:31;96988.44;;;15.12;54.41
64228;BME280;50546;49.146;10.616;2022-07-10T06:48:57;96986.03;;;15.20;54.11
64228;BME280;50546;49.146;10.616;2022-07-10T06:51:23;96989.28;;;15.34;53.40
64228;BME280;50546;49.146;10.616;2022-07-10T06:53:48;96991.16;;;15.12;52.97
64228;BME280;50546;49.146;10.616;2022-07-10T06:56:14;96994.31;;;15.23;53.43
64228;BME280;50546;49.146;10.616;2022-07-10T06:58:41;96993.69;;;15.17;52.92
64228;BME280;50546;49.146;10.616;2022-07-10T07:01:06;96979.94;;;15.23;54.13
64228;BME280;50546;49.146;10.616;2022-07-10T07:03:32;96994.50;;;15.39;53.30
64228;BME280;50546;49.146;10.616;2022-07-10T07:05:57;96993.66;;;15.26;53.15
64228;BME280;50546;49.146;10.616;2022-07-10T07:08:22;96991.88;;;15.51;52.37
64228;BME280;50546;49.146;10.616;2022-07-10T07:10:47;96989.97;;;15.52;53.24
64228;BME280;50546;49.146;10.616;2022-07-10T07:13:13;96997.88;;;15.66;52.45
64228;BME280;50546;49.146;10.616;2022-07-10T07:15:38;96990.19;;;15.68;52.13
64228;BME280;50546;49.146;10.616;2022-07-10T07:18:07;96998.16;;;15.73;52.32
64228;BME280;50546;49.146;10.616;2022-07-10T07:20:34;96992.81;;;15.97;51.98
64228;BME280;50546;49.146;10.616;2022-07-10T07:23:18;96990.31;;;15.92;51.73
64228;BME280;50546;49.146;10.616;2022-07-10T07:25:43;96987.09;;;16.11;51.50
64228;BME280;50546;49.146;10.616;2022-07-10T07:28:12;96985.22;;;16.24;51.23
64228;BME280;50546;49.146;10.616;2022-07-10T07:30:40;96994.28;;;15.95;51.37
64228;BME280;50546;49.146;10.616;2022-07-10T07:33:05;96984.53;;;15.94;51.22
64228;BME280;50546;49.146;10.616;2022-07-10T07:35:30;96986.69;;;16.00;50.73
64228;BME280;50546;49.146;10.616;2022-07-10T07:37:56;96974.16;;;16.08;51.65
64228;BME280;50546;49.146;10.616;2022-07-10T07:40:22;96981.06;;;16.05;50.48
64228;BME280;50546;49.146;10.616;2022-07-10T07:42:52;96981.66;;;15.90;51.36
64228;BME280;50546;49.146;10.616;2022-07-10T07:45:18;96980.69;;;15.95;52.07
64228;BME280;50546;49.146;10.616;2022-07-10T07:47:52;96967.03;;;16.16;51.36
64228;BME280;50546;49.146;10.616;2022-07-10T07:50:20;96979.03;;;16.02;51.70
64228;BME280;50546;49.146;10.616;2022-07-10T07:52:46;96975.88;;;16.12;51.46
64228;BME280;50546;49.146;10.616;2022-07-10T07:55:14;96985.66;;;16.26;50.97
64228;BME280;50546;49.146;10.616;2022-07-10T07:57:40;96983.84;;;16.30;51.27
64228;BME280;50546;49.146;10.616;2022-07-10T08:00:07;96981.81;;;16.27;51.04
64228;BME280;50546;49.146;10.616;2022-07-10T08:02:33;96981.06;;;16.39;51.17
64228;BME280;50546;49.146;10.616;2022-07-10T08:04:59;96975.81;;;16.79;50.64
64228;BME280;50546;49.146;10.616;2022-07-10T08:07:33;96983.59;;;16.56;48.99
64228;BME280;50546;49.146;10.616;2022-07-10T08:09:58;96988.53;;;16.08;51.40
64228;BME280;50546;49.146;10.616;2022-07-10T08:12:24;96981.06;;;16.39;52.04
64228;BME280;50546;49.146;10.616;2022-07-10T08:14:49;96971.97;;;16.92;50.13
64228;BME280;50546;49.146;10.616;2022-07-10T08:17:15;96978.28;;;17.08;50.16
64228;BME280;50546;49.146;10.616;2022-07-10T08:19:40;96975.91;;;17.19;48.96
64228;BME280;50546;49.146;10.616;2022-07-10T08:22:06;96983.63;;;16.80;49.44
64228;BME280;50546;49.146;10.616;2022-07-10T08:24:32;96987.09;;;16.56;49.87
64228;BME280;50546;49.146;10.616;2022-07-10T08:26:57;96981.00;;;16.84;50.00
64228;BME280;50546;49.146;10.616;2022-07-10T08:29:22;96978.94;;;16.69;50.10
64228;BME280;50546;49.146;10.616;2022-07-10T08:31:48;96977.63;;;16.75;50.28
64228;BME280;50546;49.146;10.616;2022-07-10T08:34:13;96972.19;;;17.12;49.39
64228;BME280;50546;49.146;10.616;2022-07-10T08:36:38;96973.22;;;17.07;48.83
64228;BME280;50546;49.146;10.616;2022-07-10T08:39:04;96983.66;;;16.47;47.41
64228;BME280;50546;49.146;10.616;2022-07-10T08:41:31;96973.25;;;16.49;49.08
64228;BME280;50546;49.146;10.616;2022-07-10T08:43:56;96978.09;;;16.89;48.14
64228;BME280;50546;49.146;10.616;2022-07-10T08:46:22;96976.47;;;16.88;47.43
64228;BME280;50546;49.146;10.616;2022-07-10T08:48:49;96962.84;;;16.64;47.92
64228;BME280;50546;49.146;10.616;2022-07-10T08:51:24;96967.53;;;16.88;48.97
64228;BME280;50546;49.146;10.616;2022-07-10T08:53:55;96967.72;;;17.19;48.97
64228;BME280;50546;49.146;10.616;2022-07-10T08:56:21;96968.19;;;17.09;49.22
64228;BME280;50546;49.146;10.616;2022-07-10T08:58:46;96970.78;;;17.30;48.89
64228;BME280;50546;49.146;10.616;2022-07-10T09:01:13;96961.28;;;17.12;49.21
64228;BME280;50546;49.146;10.616;2022-07-10T09:03:38;96971.81;;;17.13;50.56
64228;BME280;50546;49.146;10.616;2022-07-10T09:06:05;96958.13;;;17.50;48.41
64228;BME280;50546;49.146;10.616;2022-07-10T09:08:30;96957.91;;;17.43;48.48
64228;BME280;50546;49.146;10.616;2022-07-10T09:11:17;96959.84;;;17.42;48.27
64228;BME280;50546;49.146;10.616;2022-07-10T09:13:57;96962.66;;;17.18;48.13
64228;BME280;50546;49.146;10.616;2022-07-10T09:16:28;96968.41;;;17.28;48.19
64228;BME280;50546;49.146;10.616;2022-07-10T09:18:54;96967.13;;;17.38;48.06
64228;BME280;50546;49.146;10.616;2022-07-10T09:21:20;96959.53;;;17.72;45.30
64228;BME280;50546;49.146;10.616;2022-07-10T09:23:46;96967.88;;;17.63;44.93
64228;BME280;50546;49.146;10.616;2022-07-10T09:26:12;96959.78;;;18.07;46.27
64228;BME280;50546;49.146;10.616;2022-07-10T09:28:37;96967.00;;;18.15;45.02
64228;BME280;50546;49.146;10.616;2022-07-10T09:31:03;96966.00;;;18.36;45.13
64228;BME280;50546;49.146;10.616;2022-07-10T09:33:30;96966.38;;;18.06;44.91
64228;BME280;50546;49.146;10.616;2022-07-10T09:41:28;96983.91;;;17.65;47.84
64228;BME280;50546;49.146;10.616;2022-07-10T09:44:02;96989.78;;;17.67;47.10
64228;BME280;50546;49.146;10.616;2022-07-10T09:46:35;96998.00;;;17.42;47.90
64228;BME280;50546;49.146;10.616;2022-07-10T09:49:07;96990.59;;;17.43;47.89
64228;BME280;50546;49.146;10.616;2022-07-10T09:51:43;96990.28;;;17.44;47.11
64228;BME280;50546;49.146;10.616;2022-07-10T09:54:11;96988.72;;;17.31;47.96
64228;BME280;50546;49.146;10.616;2022-07-10T09:56:47;96990.91;;;17.66;47.40
64228;BME280;50546;49.146;10.616;2022-07-10T09:59:14;96988.72;;;17.71;47.23
64228;BME280;50546;49.146;10.616;2022-07-10T10:01:48;96990.34;;;18.13;46.56
64228;BME280;50546;49.146;10.616;2022-07-10T10:04:15;96990.25;;;18.25;45.82
64228;BME280;50546;49.146;10.616;2022-07-10T10:06:42;96984.31;;;18.35;45.64
64228;BME280;50546;49.146;10.616;2022-07-10T10:09:31;96986.84;;;18.28;43.77
64228;BME280;50546;49.146;10.616;2022-07-10T10:12:02;96987.03;;;18.35;44.27
64228;BME280;50546;49.146;10.616;2022-07-10T10:14:29;96985.00;;;18.92;43.99
64228;BME280;50546;49.146;10.616;2022-07-10T10:16:57;96982.81;;;19.17;43.28
64228;BME280;50546;49.146;10.616;2022-07-10T10:19:25;96973.06;;;18.52;44.50
64228;BME280;50546;49.146;10.616;2022-07-10T10:22:12;96979.38;;;18.41;44.03
64228;BME280;50546;49.146;10.616;2022-07-10T10:24:39;96984.50;;;17.86;45.05
64228;BME280;50546;49.146;10.616;2022-07-10T10:27:05;96990.22;;;17.81;45.96
64228;BME280;50546;49.146;10.616;2022-07-10T10:29:31;96978.06;;;18.50;45.14
64228;BME280;50546;49.146;10.616;2022-07-10T10:31:57;96967.00;;;18.59;42.83
64228;BME280;50546;49.146;10.616;2022-07-10T10:34:43;96979.47;;;18.44;43.45
64228;BME280;50546;49.146;10.616;2022-07-10T10:39:52;96991.50;;;18.27;44.47
64228;BME280;50546;49.146;10.616;2022-07-10T10:42:43;96972.50;;;18.47;42.75
64228;BME280;50546;49.146;10.616;2022-07-10T10:47:57;96979.63;;;17.92;43.86
64228;BME280;50546;49.146;10.616;2022-07-10T10:50:39;96987.53;;;18.25;44.56
64228;BME280;50546;49.146;10.616;2022-07-10T10:56:20;96972.63;;;19.14;42.84
64228;BME280;50546;49.146;10.616;2022-07-10T10:58:28;96979.00;;;18.86;42.38
64228;BME280;50546;49.146;10.616;2022-07-10T11:01:05;96965.81;;;18.44;42.83
64228;BME280;50546;49.146;10.616;2022-07-10T11:03:30;96973.50;;;18.55;43.10
64228;BME280;50546;49.146;10.616;2022-07-10T11:05:56;96971.75;;;18.94;42.00
64228;BME280;50546;49.146;10.616;2022-07-10T11:08:54;96962.75;;;19.44;40.05
64228;BME280;50546;49.146;10.616;2022-07-10T11:13:57;96960.44;;;19.27;39.22
64228;BME280;50546;49.146;10.616;2022-07-10T11:16:23;96956.28;;;19.33;40.73
64228;BME280;50546;49.146;10.616;2022-07-10T11:18:52;96955.72;;;19.43;40.61
64228;BME280;50546;49.146;10.616;2022-07-10T11:21:23;96967.59;;;19.86;39.56
64228;BME280;50546;49.146;10.616;2022-07-10T11:24:10;96970.50;;;19.42;39.85
64228;BME280;50546;49.146;10.616;2022-07-10T11:26:49;96955.38;;;19.64;39.18
64228;BME280;50546;49.146;10.616;2022-07-10T11:29:18;96969.38;;;19.43;40.17
64228;BME280;50546;49.146;10.616;2022-07-10T11:31:52;96961.88;;;19.05;40.48
64228;BME280;50546;49.146;10.616;2022-07-10T11:34:17;96970.19;;;18.77;40.51
64228;BME280;50546;49.146;10.616;2022-07-10T11:36:43;96958.38;;;18.73;41.48
64228;BME280;50546;49.146;10.616;2022-07-10T11:39:08;96973.13;;;19.19;41.25
64228;BME280;50546;49.146;10.616;2022-07-10T11:41:42;96969.00;;;19.26;40.34
64228;BME280;50546;49.146;10.616;2022-07-10T11:44:13;96968.16;;;19.41;39.62
64228;BME280;50546;49.146;10.616;2022-07-10T11:46:39;96980.91;;;19.02;40.54
64228;BME280;50546;49.146;10.616;2022-07-10T11:49:07;96979.28;;;18.81;40.69
64228;BME280;50546;49.146;10.616;2022-07-10T11:51:35;96971.78;;;18.78;40.82
64228;BME280;50546;49.146;10.616;2022-07-10T11:54:06;96967.78;;;18.60;41.05
64228;BME280;50546;49.146;10.616;2022-07-10T11:56:33;96968.53;;;18.44;42.39
64228;BME280;50546;49.146;10.616;2022-07-10T11:59:06;96981.69;;;18.55;42.88
64228;BME280;50546;49.146;10.616;2022-07-10T12:01:41;96967.25;;;19.02;41.15
64228;BME280;50546;49.146;10.616;2022-07-10T12:04:08;96963.88;;;19.24;40.99
64228;BME280;50546;49.146;10.616;2022-07-10T12:06:36;96962.94;;;19.00;40.24
64228;BME280;50546;49.146;10.616;2022-07-10T12:09:03;96976.03;;;19.27;40.53
64228;BME280;50546;49.146;10.616;2022-07-10T12:11:29;96979.59;;;19.11;40.12
64228;BME280;50546;49.146;10.616;2022-07-10T12:14:09;96978.53;;;18.84;39.98
64228;BME280;50546;49.146;10.616;2022-07-10T12:16:35;96977.03;;;18.87;40.16
64228;BME280;50546;49.146;10.616;2022-07-10T12:19:02;96964.19;;;18.71;40.57
64228;BME280;50546;49.146;10.616;2022-07-10T12:21:27;96969.88;;;18.66;41.60
64228;BME280;50546;49.146;10.616;2022-07-10T12:23:54;96984.44;;;18.86;41.14
64228;BME280;50546;49.146;10.616;2022-07-10T12:26:20;96982.03;;;19.16;41.38
64228;BME280;50546;49.146;10.616;2022-07-10T12:28:56;96981.16;;;19.28;39.97
64228;BME280;50546;49.146;10.616;2022-07-10T12:31:26;96970.94;;;19.25;39.09
64228;BME280;50546;49.146;10.616;2022-07-10T12:33:54;96970.88;;;19.76;39.44
64228;BME280;50546;49.146;10.616;2022-07-10T12:36:22;96975.97;;;19.07;39.51
64228;BME280;50546;49.146;10.616;2022-07-10T12:38:57;96973.81;;;18.81;40.48
64228;BME280;50546;49.146;10.616;2022-07-10T12:41:23;96986.72;;;18.84;40.28
64228;BME280;50546;49.146;10.616;2022-07-10T12:43:51;96992.53;;;18.98;40.12
64228;BME280;50546;49.146;10.616;2022-07-10T12:46:22;96992.53;;;18.98;39.81
64228;BME280;50546;49.146;10.616;2022-07-10T12:49:07;96988.16;;;18.78;39.30
64228;BME280;50546;49.146;10.616;2022-07-10T12:51:42;96988.66;;;18.68;39.97
64228;BME280;50546;49.146;10.616;2022-07-10T12:54:08;96990.88;;;18.94;39.95
64228;BME280;50546;49.146;10.616;2022-07-10T12:56:35;96986.19;;;18.94;39.84
64228;BME280;50546;49.146;10.616;2022-07-10T12:59:12;96983.63;;;19.17;39.51
64228;BME280;50546;49.146;10.616;2022-07-10T13:01:43;96990.50;;;19.11;39.54
64228;BME280;50546;49.146;10.616;2022-07-10T13:04:09;96992.69;;;19.57;39.18
64228;BME280;50546;49.146;10.616;2022-07-10T13:06:35;96987.41;;;19.64;39.19